Time,TemperatureF,DewpointF,PressureIn,WindDirection,WindDirectionDegrees,WindSpeedMPH,WindSpeedGustMPH,Humidity,HourlyPrecipIn,Conditions,Clouds,dailyrainin,SoftwareType,DateUTC
2013-04-09 00:03:00,67.0,61.0,30.13,East,94,1.0,3.0,80,99.99,,,-99.99,,2013-04-09 04:03:00,
2013-04-09 00:13:00,67.0,61.0,30.13,East,94,1.0,3.0,80,99.99,,,-99.99,,2013-04-09 04:13:00,
2013-04-09 00:23:00,66.0,60.0,30.13,SSE,167,1.0,2.0,80,99.99,,,-99.99,,2013-04-09 04:23:00,
2013-04-09 00:32:00,67.0,61.0,30.12,SE,134,1.0,4.0,81,99.99,,,-99.99,,2013-04-09 04:32:00,
2013-04-09 00:42:00,67.0,61.0,30.12,SE,134,1.0,4.0,81,99.99,,,-99.99,,2013-04-09 04:42:00,
2013-04-09 00:53:00,67.0,61.0,30.12,SE,134,1.0,4.0,81,99.99,,,-99.99,,2013-04-09 04:53:00,
2013-04-09 01:02:00,66.0,60.0,30.12,SSE,158,1.0,3.0,82,99.99,,,-99.99,,2013-04-09 05:02:00,
2013-04-09 01:12:00,66.0,61.0,30.12,SE,142,1.0,3.0,83,99.99,,,-99.99,,2013-04-09 05:12:00,
2013-04-09 01:22:00,66.0,61.0,30.12,SE,142,1.0,3.0,83,99.99,,,-99.99,,2013-04-09 05:22:00,
2013-04-09 01:32:00,66.0,61.0,30.12,North,0,0.0,0.0,85,99.99,,,-99.99,,2013-04-09 05:32:00,
2013-04-09 01:42:00,66.0,62.0,30.11,North,0,0.0,0.0,86,99.99,,,-99.99,,2013-04-09 05:42:00,
2013-04-09 01:52:00,66.0,62.0,30.11,North,0,0.0,0.0,86,99.99,,,-99.99,,2013-04-09 05:52:00,
2013-04-09 02:02:00,65.0,61.0,30.11,North,0,0.0,0.0,86,99.99,,,-99.99,,2013-04-09 06:02:00,
2013-04-09 02:12:00,65.0,61.0,30.10,North,0,0.0,0.0,88,99.99,,,-99.99,,2013-04-09 06:12:00,
2013-04-09 02:22:00,65.0,61.0,30.10,North,0,0.0,0.0,88,99.99,,,-99.99,,2013-04-09 06:22:00,
2013-04-09 02:32:00,64.0,61.0,30.10,North,0,0.0,0.0,90,99.99,,,-99.99,,2013-04-09 06:32:00,
2013-04-09 02:42:00,64.0,61.0,30.10,North,0,0.0,0.0,90,99.99,,,-99.99,,2013-04-09 06:42:00,
2013-04-09 02:52:00,64.0,61.0,30.10,North,0,0.0,0.0,91,99.99,,,-99.99,,2013-04-09 06:52:00,
2013-04-09 03:02:00,63.0,61.0,30.09,North,0,0.0,0.0,93,99.99,,,-99.99,,2013-04-09 07:02:00,
2013-04-09 03:13:00,62.0,60.0,30.09,North,0,0.0,0.0,94,99.99,,,-99.99,,2013-04-09 07:13:00,
2013-04-09 03:22:00,62.0,60.0,30.09,North,0,0.0,0.0,94,99.99,,,-99.99,,2013-04-09 07:22:00,
2013-04-09 03:32:00,62.0,61.0,30.09,North,0,0.0,0.0,96,99.99,,,-99.99,,2013-04-09 07:32:00,
2013-04-09 03:42:00,62.0,61.0,30.09,North,0,0.0,0.0,96,99.99,,,-99.99,,2013-04-09 07:42:00,
2013-04-09 03:53:00,63.0,62.0,30.09,North,0,0.0,0.0,97,99.99,,,-99.99,,2013-04-09 07:53:00,
2013-04-09 04:03:00,62.0,61.0,30.09,North,0,0.0,0.0,97,99.99,,,-99.99,,2013-04-09 08:03:00,
2013-04-09 04:12:00,62.0,61.0,30.09,North,0,0.0,0.0,97,99.99,,,-99.99,,2013-04-09 08:12:00,
2013-04-09 04:22:00,61.0,60.0,30.08,North,0,0.0,0.0,97,99.99,,,-99.99,,2013-04-09 08:22:00,
2013-04-09 04:32:00,61.0,60.0,30.08,North,0,0.0,0.0,98,99.99,,,-99.99,,2013-04-09 08:32:00,
2013-04-09 04:42:00,61.0,61.0,30.08,North,0,0.0,0.0,99,99.99,,,-99.99,,2013-04-09 08:42:00,
2013-04-09 04:52:00,61.0,61.0,30.08,North,0,0.0,0.0,99,99.99,,,-99.99,,2013-04-09 08:52:00,
2013-04-09 05:02:00,60.0,60.0,30.08,North,0,0.0,0.0,100,99.99,,,-99.99,,2013-04-09 09:02:00,
2013-04-09 05:12:00,60.0,60.0,30.07,North,0,0.0,0.0,100,99.99,,,-99.99,,2013-04-09 09:12:00,
2013-04-09 05:22:00,60.0,60.0,30.07,North,0,0.0,0.0,100,99.99,,,-99.99,,2013-04-09 09:22:00,
2013-04-09 05:33:00,60.0,60.0,30.08,North,0,0.0,0.0,100,99.99,,,-99.99,,2013-04-09 09:33:00,
2013-04-09 05:43:00,60.0,60.0,30.08,North,0,0.0,0.0,100,99.99,,,-99.99,,2013-04-09 09:43:00,
2013-04-09 05:53:00,61.0,61.0,30.08,North,0,0.0,0.0,100,99.99,,,-99.99,,2013-04-09 09:53:00,
2013-04-09 06:03:00,60.0,60.0,30.09,North,0,0.0,0.0,100,99.99,,,-99.99,,2013-04-09 10:03:00,
2013-04-09 06:13:00,60.0,60.0,30.09,North,0,0.0,0.0,100,99.99,,,-99.99,,2013-04-09 10:13:00,
2013-04-09 06:23:00,60.0,60.0,30.09,North,0,0.0,0.0,100,99.99,,,-99.99,,2013-04-09 10:23:00,
2013-04-09 06:33:00,60.0,60.0,30.09,North,0,0.0,0.0,100,99.99,,,-99.99,,2013-04-09 10:33:00,
2013-04-09 06:43:00,60.0,60.0,30.09,North,0,0.0,0.0,100,99.99,,,-99.99,,2013-04-09 10:43:00,
2013-04-09 06:53:00,60.0,60.0,30.09,North,0,0.0,0.0,100,99.99,,,-99.99,,2013-04-09 10:53:00,
2013-04-09 07:02:00,59.0,59.0,30.10,North,0,0.0,0.0,100,99.99,,,-99.99,,2013-04-09 11:02:00,
2013-04-09 07:12:00,59.0,59.0,30.10,North,0,0.0,0.0,100,99.99,,,-99.99,,2013-04-09 11:12:00,
2013-04-09 07:22:00,59.0,59.0,30.11,North,0,0.0,0.0,100,99.99,,,-99.99,,2013-04-09 11:22:00,
2013-04-09 07:32:00,60.0,60.0,30.11,North,0,0.0,0.0,100,99.99,,,-99.99,,2013-04-09 11:32:00,
2013-04-09 07:42:00,60.0,60.0,30.12,North,0,0.0,0.0,100,99.99,,,-99.99,,2013-04-09 11:42:00,
2013-04-09 07:52:00,60.0,60.0,30.12,North,0,0.0,0.0,100,99.99,,,-99.99,,2013-04-09 11:52:00,
2013-04-09 08:02:00,61.0,61.0,30.12,North,0,0.0,0.0,100,99.99,,,-99.99,,2013-04-09 12:02:00,
2013-04-09 08:12:00,61.0,61.0,30.12,North,0,0.0,0.0,100,99.99,,,-99.99,,2013-04-09 12:12:00,
2013-04-09 08:22:00,63.0,-99.9,30.13,North,0,0.0,0.0,0,99.99,,,-99.99,,2013-04-09 12:22:00,
2013-04-09 08:32:00,64.0,64.0,30.13,North,0,0.0,0.0,100,99.99,,,-99.99,,2013-04-09 12:32:00,
2013-04-09 08:42:00,64.0,64.0,30.13,North,0,0.0,0.0,100,99.99,,,-99.99,,2013-04-09 12:42:00,
2013-04-09 08:53:00,66.0,66.0,30.13,East,101,3.0,6.0,100,99.99,,,-99.99,,2013-04-09 12:53:00,
2013-04-09 09:02:00,67.0,67.0,30.14,ESE,118,3.0,6.0,100,99.99,,,-99.99,,2013-04-09 13:02:00,
2013-04-09 09:12:00,67.0,67.0,30.14,ESE,118,3.0,6.0,100,99.99,,,-99.99,,2013-04-09 13:12:00,
2013-04-09 09:23:00,70.0,70.0,30.14,ESE,121,4.0,7.0,100,99.99,,,-99.99,,2013-04-09 13:23:00,
2013-04-09 09:33:00,71.0,71.0,30.14,SE,141,4.0,7.0,99,99.99,,,-99.99,,2013-04-09 13:33:00,
2013-04-09 09:43:00,71.0,71.0,30.14,SE,141,4.0,7.0,99,99.99,,,-99.99,,2013-04-09 13:43:00,
2013-04-09 09:53:00,73.0,70.0,30.15,SE,136,5.0,8.0,89,99.99,,,-99.99,,2013-04-09 13:53:00,
2013-04-09 10:03:00,74.0,67.0,30.15,SE,139,7.0,12.0,79,99.99,,,-99.99,,2013-04-09 14:03:00,
2013-04-09 10:12:00,74.0,67.0,30.15,SE,139,7.0,12.0,79,99.99,,,-99.99,,2013-04-09 14:12:00,
2013-04-09 10:22:00,75.0,67.0,30.15,South,180,6.0,10.0,75,99.99,,,-99.99,,2013-04-09 14:22:00,
2013-04-09 10:32:00,76.0,65.0,30.15,SSE,155,8.0,13.0,69,99.99,,,-99.99,,2013-04-09 14:32:00,
2013-04-09 10:42:00,76.0,65.0,30.15,SSE,155,8.0,13.0,69,99.99,,,-99.99,,2013-04-09 14:42:00,
2013-04-09 10:52:00,76.0,65.0,30.16,SSE,166,6.0,10.0,69,99.99,,,-99.99,,2013-04-09 14:52:00,
2013-04-09 11:02:00,76.0,64.0,30.16,SE,134,7.0,15.0,67,99.99,,,-99.99,,2013-04-09 15:02:00,
2013-04-09 11:13:00,76.0,64.0,30.16,SE,134,7.0,15.0,67,99.99,,,-99.99,,2013-04-09 15:13:00,
2013-04-09 11:23:00,76.0,-99.9,30.16,ESE,105,7.0,12.0,-999,99.99,,,-99.99,,2013-04-09 15:23:00,
2013-04-09 11:33:00,75.0,66.0,30.16,SE,143,6.0,9.0,74,99.99,,,-99.99,,2013-04-09 15:33:00,
2013-04-09 11:43:00,75.0,66.0,30.16,SE,143,6.0,9.0,74,99.99,,,-99.99,,2013-04-09 15:43:00,
2013-04-09 11:53:00,76.0,65.0,30.16,SE,145,6.0,11.0,68,99.99,,,-99.99,,2013-04-09 15:53:00,
2013-04-09 12:03:00,77.0,63.0,30.15,SE,134,7.0,12.0,61,99.99,,,-99.99,,2013-04-09 16:03:00,
2013-04-09 12:13:00,77.0,63.0,30.15,SE,134,7.0,12.0,61,99.99,,,-99.99,,2013-04-09 16:13:00,
2013-04-09 12:23:00,78.0,62.0,30.15,SE,135,6.0,10.0,59,99.99,,,-99.99,,2013-04-09 16:23:00,
2013-04-09 12:33:00,78.0,63.0,30.14,SE,124,8.0,13.0,61,99.99,,,-99.99,,2013-04-09 16:33:00,
2013-04-09 12:42:00,78.0,63.0,30.14,SE,124,8.0,13.0,61,99.99,,,-99.99,,2013-04-09 16:42:00,
2013-04-09 12:54:00,78.0,64.0,30.14,ESE,118,5.0,9.0,63,99.99,,,-99.99,,2013-04-09 16:54:00,
2013-04-09 13:02:00,78.0,62.0,30.14,SE,131,6.0,12.0,58,99.99,,,-99.99,,2013-04-09 17:02:00,
2013-04-09 13:13:00,79.0,62.0,30.14,SE,125,7.0,13.0,56,99.99,,,-99.99,,2013-04-09 17:13:00,
2013-04-09 13:23:00,79.0,62.0,30.14,SE,125,7.0,13.0,56,99.99,,,-99.99,,2013-04-09 17:23:00,
2013-04-09 13:32:00,80.0,61.0,30.13,SE,143,9.0,14.0,52,99.99,,,-99.99,,2013-04-09 17:32:00,
2013-04-09 13:43:00,80.0,61.0,30.13,SE,143,9.0,14.0,52,99.99,,,-99.99,,2013-04-09 17:43:00,
2013-04-09 13:54:00,81.0,61.0,30.12,East,93,9.0,15.0,50,99.99,,,-99.99,,2013-04-09 17:54:00,
2013-04-09 14:02:00,82.0,58.0,30.11,SE,135,8.0,13.0,44,99.99,,,-99.99,,2013-04-09 18:02:00,
2013-04-09 14:13:00,82.0,58.0,30.11,SE,135,8.0,13.0,44,99.99,,,-99.99,,2013-04-09 18:13:00,
2013-04-09 14:23:00,82.0,-99.9,30.11,SE,146,8.0,12.0,-999,99.99,,,-99.99,,2013-04-09 18:23:00,
2013-04-09 14:33:00,81.0,56.0,30.10,SE,128,8.0,13.0,42,99.99,,,-99.99,,2013-04-09 18:33:00,
2013-04-09 14:43:00,81.0,56.0,30.10,SE,128,8.0,13.0,42,99.99,,,-99.99,,2013-04-09 18:43:00,
2013-04-09 14:53:00,82.0,55.0,30.10,South,174,5.0,11.0,39,99.99,,,-99.99,,2013-04-09 18:53:00,
2013-04-09 15:03:00,82.0,55.0,30.10,South,174,5.0,11.0,39,99.99,,,-99.99,,2013-04-09 19:03:00,
2013-04-09 15:12:00,82.0,55.0,30.10,South,174,5.0,11.0,39,99.99,,,-99.99,,2013-04-09 19:12:00,
2013-04-09 15:22:00,82.0,55.0,30.10,South,174,5.0,11.0,39,99.99,,,-99.99,,2013-04-09 19:22:00,
2013-04-09 15:32:00,82.0,51.0,30.10,ENE,73,7.0,13.0,34,99.99,,,-99.99,,2013-04-09 19:32:00,
2013-04-09 15:42:00,82.0,51.0,30.10,ENE,73,7.0,13.0,34,99.99,,,-99.99,,2013-04-09 19:42:00,
2013-04-09 15:53:00,81.0,52.0,30.09,East,94,7.0,12.0,37,99.99,,,-99.99,,2013-04-09 19:53:00,
2013-04-09 16:02:00,81.0,45.0,30.09,ESE,107,5.0,10.0,28,99.99,,,-99.99,,2013-04-09 20:02:00,
2013-04-09 16:12:00,80.0,-99.9,30.09,SSE,150,4.0,8.0,-999,99.99,,,-99.99,,2013-04-09 20:12:00,
2013-04-09 16:23:00,80.0,-99.9,30.09,SSE,150,4.0,8.0,-999,99.99,,,-99.99,,2013-04-09 20:23:00,
2013-04-09 16:33:00,80.0,57.0,30.09,ESE,113,6.0,9.0,45,99.99,,,-99.99,,2013-04-09 20:33:00,
2013-04-09 16:43:00,80.0,57.0,30.09,ESE,113,6.0,9.0,45,99.99,,,-99.99,,2013-04-09 20:43:00,
2013-04-09 16:53:00,81.0,56.0,30.09,SE,134,5.0,9.0,42,99.99,,,-99.99,,2013-04-09 20:53:00,
2013-04-09 17:02:00,81.0,54.0,30.09,ESE,115,8.0,16.0,39,99.99,,,-99.99,,2013-04-09 21:02:00,
2013-04-09 17:13:00,81.0,54.0,30.09,ESE,115,8.0,16.0,39,99.99,,,-99.99,,2013-04-09 21:13:00,
2013-04-09 17:22:00,81.0,54.0,30.09,ESE,115,8.0,16.0,39,99.99,,,-99.99,,2013-04-09 21:22:00,
2013-04-09 17:33:00,81.0,46.0,30.09,SE,142,7.0,13.0,29,99.99,,,-99.99,,2013-04-09 21:33:00,
2013-04-09 17:42:00,81.0,46.0,30.09,SE,142,7.0,13.0,29,99.99,,,-99.99,,2013-04-09 21:42:00,
2013-04-09 17:53:00,80.0,47.0,30.09,SE,135,5.0,9.0,31,99.99,,,-99.99,,2013-04-09 21:53:00,
2013-04-09 18:03:00,80.0,45.0,30.09,SE,132,6.0,11.0,29,99.99,,,-99.99,,2013-04-09 22:03:00,
2013-04-09 18:13:00,80.0,47.0,30.09,SE,142,6.0,10.0,31,99.99,,,-99.99,,2013-04-09 22:13:00,
2013-04-09 18:23:00,80.0,47.0,30.09,SE,142,6.0,10.0,31,99.99,,,-99.99,,2013-04-09 22:23:00,
2013-04-09 18:33:00,79.0,46.0,30.09,SE,143,6.0,12.0,31,99.99,,,-99.99,,2013-04-09 22:33:00,
2013-04-09 18:42:00,79.0,46.0,30.09,SE,143,6.0,12.0,31,99.99,,,-99.99,,2013-04-09 22:42:00,
2013-04-09 18:54:00,79.0,48.0,30.08,ESE,118,7.0,13.0,34,99.99,,,-99.99,,2013-04-09 22:54:00,
2013-04-09 19:03:00,78.0,48.0,30.09,ESE,105,7.0,14.0,35,99.99,,,-99.99,,2013-04-09 23:03:00,
2013-04-09 19:13:00,78.0,-99.9,30.09,ESE,104,7.0,11.0,-999,99.99,,,-99.99,,2013-04-09 23:13:00,
2013-04-09 19:23:00,78.0,-99.9,30.09,ESE,104,7.0,11.0,-999,99.99,,,-99.99,,2013-04-09 23:23:00,
2013-04-09 19:32:00,78.0,47.0,30.09,SE,146,6.0,12.0,34,99.99,,,-99.99,,2013-04-09 23:32:00,
2013-04-09 19:42:00,78.0,47.0,30.09,SE,146,6.0,12.0,34,99.99,,,-99.99,,2013-04-09 23:42:00,
2013-04-09 19:53:00,77.0,47.0,30.09,ESE,113,7.0,15.0,35,99.99,,,-99.99,,2013-04-09 23:53:00,
2013-04-09 20:03:00,77.0,47.0,30.09,ESE,113,7.0,15.0,35,99.99,,,-99.99,,2013-04-10 00:03:00,
2013-04-09 20:12:00,77.0,47.0,30.09,ESE,113,7.0,15.0,35,99.99,,,-99.99,,2013-04-10 00:12:00,
2013-04-09 20:23:00,75.0,-99.9,30.10,ESE,105,6.0,10.0,-999,99.99,,,-99.99,,2013-04-10 00:23:00,
2013-04-09 20:33:00,74.0,47.0,30.10,East,101,4.0,7.0,39,99.99,,,-99.99,,2013-04-10 00:33:00,
2013-04-09 20:42:00,74.0,47.0,30.10,East,101,4.0,7.0,39,99.99,,,-99.99,,2013-04-10 00:42:00,
2013-04-09 20:53:00,73.0,47.0,30.11,East,97,5.0,7.0,40,99.99,,,-99.99,,2013-04-10 00:53:00,
2013-04-09 21:02:00,73.0,49.0,30.11,ESE,105,3.0,5.0,42,99.99,,,-99.99,,2013-04-10 01:02:00,
2013-04-09 21:12:00,72.0,-99.9,30.11,SE,125,3.0,5.0,-999,99.99,,,-99.99,,2013-04-10 01:12:00,
2013-04-09 21:23:00,72.0,-99.9,30.11,SE,125,3.0,5.0,-999,99.99,,,-99.99,,2013-04-10 01:23:00,
2013-04-09 21:32:00,71.0,52.0,30.12,East,101,3.0,6.0,52,99.99,,,-99.99,,2013-04-10 01:32:00,
2013-04-09 21:42:00,71.0,52.0,30.12,East,101,3.0,6.0,52,99.99,,,-99.99,,2013-04-10 01:42:00,
2013-04-09 21:53:00,71.0,56.0,30.12,East,101,2.0,3.0,59,99.99,,,-99.99,,2013-04-10 01:53:00,
2013-04-09 22:02:00,70.0,56.0,30.13,ESE,122,1.0,4.0,61,99.99,,,-99.99,,2013-04-10 02:02:00,
2013-04-09 22:13:00,69.0,-99.9,30.13,SE,125,1.0,3.0,-999,99.99,,,-99.99,,2013-04-10 02:13:00,
2013-04-09 22:23:00,69.0,-99.9,30.13,SE,125,1.0,3.0,-999,99.99,,,-99.99,,2013-04-10 02:23:00,
2013-04-09 22:32:00,69.0,58.0,30.13,ENE,60,2.0,4.0,67,99.99,,,-99.99,,2013-04-10 02:32:00,
2013-04-09 22:43:00,69.0,58.0,30.13,ENE,60,2.0,4.0,67,99.99,,,-99.99,,2013-04-10 02:43:00,
2013-04-09 22:53:00,68.0,57.0,30.13,ESE,121,1.0,3.0,69,99.99,,,-99.99,,2013-04-10 02:53:00,
2013-04-09 23:03:00,68.0,56.0,30.14,SE,139,1.0,3.0,66,99.99,,,-99.99,,2013-04-10 03:03:00,
2013-04-09 23:12:00,68.0,56.0,30.14,SE,139,1.0,3.0,66,99.99,,,-99.99,,2013-04-10 03:12:00,
2013-04-09 23:22:00,67.0,-99.9,30.14,SSE,156,2.0,3.0,-999,99.99,,,-99.99,,2013-04-10 03:22:00,
2013-04-09 23:33:00,67.0,59.0,30.14,North,0,0.0,0.0,75,99.99,,,-99.99,,2013-04-10 03:33:00,
2013-04-09 23:43:00,67.0,59.0,30.14,North,0,0.0,0.0,75,99.99,,,-99.99,,2013-04-10 03:43:00,
2013-04-09 23:53:00,66.0,58.0,30.13,SSE,149,0.0,2.0,76,99.99,,,-99.99,,2013-04-10 03:53:00,